Starlight, Pennsylvania
Current Conditions -  °F | °C
As of 10:35 AM on Monday 22 Dec 2014 (Local Time) from KMSV Reporting Station
Overcast Overcast  
Wind Chill: 23°   Ceiling: 200
Heat Index: 30°   Visibility: 0.25mi
Dew Point: 28°   Wind: 7mph
Humidity: 93%   Direction: 120°ESE
Pressure: 30.28"   Gusts: NA
Location:  41.9°N, 75.33°W
Report Text: KMSV 221535Z AUTO 12006KT 1/4SM OVC002 M01/M02 A3028 RMK AO1
Loading
Personal Weather Stations






























Interactive Weather Map New forecast layout! Learn more

10-Day Weather Forecast

Advertisements
Track Severe Weather on mobile